Time;durP1;ratioP1;P1;durP2;ratioP2;P2;SDS_P1;SDS_P2;PMS_P1;PMS_P2;Temp;Humidity;BMP_temperature;BMP_pressure;BME280_temperature;BME280_humidity;BME280_pressure;Samples;Min_cycle;Max_cycle;Signal;HPM_P1;HPM_P2
2021/08/08 00:02:23;;;;;;;5.57;3.10;;;;;;;;;;4968412;28;20419;-96
2021/08/08 00:04:53;;;;;;;9.13;3.40;;;;;;;;;;4951975;28;20404;-96
2021/08/08 00:07:20;;;;;;;5.15;3.00;;;;;;;;;;4965167;28;20423;-96
2021/08/08 00:09:47;;;;;;;5.47;3.13;;;;;;;;;;4961179;28;20898;-95
2021/08/08 00:12:14;;;;;;;6.18;3.13;;;;;;;;;;4951582;29;20408;-96
2021/08/08 00:14:41;;;;;;;4.70;3.08;;;;;;;;;;4951164;29;20454;-96
2021/08/08 00:17:08;;;;;;;9.30;3.40;;;;;;;;;;4951618;29;20420;-95
2021/08/08 00:19:35;;;;;;;4.70;3.35;;;;;;;;;;4951221;29;20994;-96
2021/08/08 00:22:04;;;;;;;5.50;3.05;;;;;;;;;;4962504;28;20418;-95
2021/08/08 00:24:31;;;;;;;4.72;3.30;;;;;;;;;;4967872;28;20419;-96
2021/08/08 00:26:58;;;;;;;5.82;3.05;;;;;;;;;;4951148;29;20420;-95
2021/08/08 00:29:25;;;;;;;7.35;3.30;;;;;;;;;;4961657;28;20410;-96
2021/08/08 00:31:52;;;;;;;5.30;3.13;;;;;;;;;;4970549;28;20423;-95
2021/08/08 00:34:18;;;;;;;6.82;3.33;;;;;;;;;;4973704;28;20429;-95
2021/08/08 00:36:45;;;;;;;6.85;3.90;;;;;;;;;;4969349;28;20420;-95
2021/08/08 00:39:17;;;;;;;5.50;3.65;;;;;;;;;;4954900;29;20920;-95
2021/08/08 00:41:44;;;;;;;6.25;3.78;;;;;;;;;;4961435;28;20458;-95
2021/08/08 00:44:11;;;;;;;5.93;3.43;;;;;;;;;;4963446;28;20451;-95
2021/08/08 00:46:37;;;;;;;5.17;3.40;;;;;;;;;;4975126;28;20438;-95
2021/08/08 00:49:05;;;;;;;9.63;3.77;;;;;;;;;;4963919;28;20421;-94
2021/08/08 00:51:34;;;;;;;5.65;3.55;;;;;;;;;;4973953;28;20430;-95
2021/08/08 00:54:01;;;;;;;8.23;3.60;;;;;;;;;;4977293;28;20412;-94
2021/08/08 00:56:30;;;;;;;8.30;3.53;;;;;;;;;;4982250;28;20423;-95
2021/08/08 00:58:57;;;;;;;6.35;3.80;;;;;;;;;;4973422;28;20414;-95
2021/08/08 01:01:26;;;;;;;6.95;3.45;;;;;;;;;;4980811;28;20821;-94
2021/08/08 01:03:55;;;;;;;6.00;3.60;;;;;;;;;;4993505;28;20423;-94
2021/08/08 01:06:28;;;;;;;6.10;3.30;;;;;;;;;;4975474;28;20449;-95
2021/08/08 01:08:59;;;;;;;4.85;3.30;;;;;;;;;;4975817;28;20922;-95
2021/08/08 01:11:26;;;;;;;7.00;3.45;;;;;;;;;;4977179;28;20409;-96
2021/08/08 01:13:56;;;;;;;8.35;3.65;;;;;;;;;;4991948;28;20420;-96
2021/08/08 01:16:25;;;;;;;6.43;3.72;;;;;;;;;;4982919;28;20420;-95
2021/08/08 01:18:53;;;;;;;4.68;3.50;;;;;;;;;;4972985;28;20469;-96
2021/08/08 01:21:25;;;;;;;5.40;3.78;;;;;;;;;;4988956;28;20428;-96
2021/08/08 01:23:56;;;;;;;5.03;3.40;;;;;;;;;;4983481;28;21128;-96
2021/08/08 01:26:24;;;;;;;5.53;3.72;;;;;;;;;;4992480;28;20416;-95
2021/08/08 01:28:53;;;;;;;6.95;3.78;;;;;;;;;;4978880;28;20422;-96
2021/08/08 01:31:20;;;;;;;8.55;3.85;;;;;;;;;;4972539;28;20490;-96
2021/08/08 01:33:47;;;;;;;6.13;3.30;;;;;;;;;;4972995;28;20418;-95
2021/08/08 01:36:14;;;;;;;6.75;3.80;;;;;;;;;;4972362;28;20414;-96
2021/08/08 01:38:45;;;;;;;7.22;3.80;;;;;;;;;;4977488;28;20422;-96
2021/08/08 01:41:17;;;;;;;7.18;3.53;;;;;;;;;;4978668;28;20418;-95
2021/08/08 01:43:49;;;;;;;6.07;3.60;;;;;;;;;;4977238;28;20965;-96
2021/08/08 01:46:17;;;;;;;5.68;3.40;;;;;;;;;;4979344;28;20981;-96
2021/08/08 01:48:47;;;;;;;6.93;3.38;;;;;;;;;;4983300;28;20408;-96
2021/08/08 01:51:14;;;;;;;6.23;3.40;;;;;;;;;;4972869;28;20437;-96
2021/08/08 01:53:42;;;;;;;7.80;3.47;;;;;;;;;;4972198;28;20414;-96
2021/08/08 01:56:12;;;;;;;5.72;3.40;;;;;;;;;;4960308;28;20411;-96
2021/08/08 01:58:42;;;;;;;7.38;3.33;;;;;;;;;;4953579;28;20439;-96
2021/08/08 02:01:09;;;;;;;7.05;3.67;;;;;;;;;;4973777;28;20428;-96
2021/08/08 02:03:36;;;;;;;7.03;3.80;;;;;;;;;;4991922;28;20409;-96
2021/08/08 02:06:05;;;;;;;7.05;3.92;;;;;;;;;;4991618;28;20424;-96
2021/08/08 02:08:32;;;;;;;7.93;3.67;;;;;;;;;;4953038;28;20416;-96
2021/08/08 02:10:59;;;;;;;7.63;3.75;;;;;;;;;;4952884;28;20416;-96
2021/08/08 02:13:26;;;;;;;5.95;3.80;;;;;;;;;;4982206;28;20409;-96
2021/08/08 02:15:55;;;;;;;6.50;3.47;;;;;;;;;;4977095;28;20419;-96
2021/08/08 02:18:22;;;;;;;5.97;3.58;;;;;;;;;;4984333;28;20412;-96
2021/08/08 02:20:49;;;;;;;7.78;3.60;;;;;;;;;;4972333;28;20414;-96
2021/08/08 02:23:16;;;;;;;6.75;3.95;;;;;;;;;;4972197;28;20419;-96
2021/08/08 02:25:43;;;;;;;6.95;3.95;;;;;;;;;;4971937;28;20441;-95
2021/08/08 02:28:10;;;;;;;7.75;3.65;;;;;;;;;;4972034;28;20713;-95
2021/08/08 02:30:38;;;;;;;4.23;3.63;;;;;;;;;;4972307;28;20483;-96
2021/08/08 02:33:06;;;;;;;6.38;3.80;;;;;;;;;;4971869;28;20419;-95
2021/08/08 02:35:33;;;;;;;6.30;3.90;;;;;;;;;;4967588;28;20431;-96
2021/08/08 02:38:00;;;;;;;5.35;3.55;;;;;;;;;;4991578;28;20739;-96
2021/08/08 02:40:27;;;;;;;6.50;3.80;;;;;;;;;;4991061;28;20412;-96
2021/08/08 02:42:54;;;;;;;7.68;3.80;;;;;;;;;;4990855;28;20413;-95
2021/08/08 02:45:21;;;;;;;7.38;3.58;;;;;;;;;;4991215;28;20423;-96
2021/08/08 02:47:48;;;;;;;6.35;3.80;;;;;;;;;;4991066;28;20413;-96
2021/08/08 02:50:17;;;;;;;7.13;3.50;;;;;;;;;;4989861;28;20413;-96
2021/08/08 02:52:44;;;;;;;6.82;3.95;;;;;;;;;;4971508;28;20462;-95
2021/08/08 02:55:12;;;;;;;6.80;4.38;;;;;;;;;;4970751;28;20449;-96
2021/08/08 02:57:39;;;;;;;8.15;4.43;;;;;;;;;;4971428;28;20501;-96
2021/08/08 03:00:06;;;;;;;7.40;4.32;;;;;;;;;;4971317;28;20418;-96
2021/08/08 03:02:34;;;;;;;8.35;4.93;;;;;;;;;;4975074;28;20426;-95
2021/08/08 03:05:01;;;;;;;8.57;5.20;;;;;;;;;;4974623;28;20424;-95
2021/08/08 03:07:29;;;;;;;6.67;5.03;;;;;;;;;;4990968;28;20431;-96
2021/08/08 03:09:56;;;;;;;8.98;5.60;;;;;;;;;;4980240;28;20410;-96
2021/08/08 03:12:23;;;;;;;7.90;5.25;;;;;;;;;;4971073;28;20427;-95
2021/08/08 03:14:50;;;;;;;7.28;4.90;;;;;;;;;;4977077;28;20798;-96
2021/08/08 03:17:17;;;;;;;7.82;5.15;;;;;;;;;;4990867;28;20416;-96
2021/08/08 03:19:44;;;;;;;7.07;4.95;;;;;;;;;;4991165;28;20420;-96
2021/08/08 03:22:11;;;;;;;9.87;5.20;;;;;;;;;;4981944;28;20420;-96
2021/08/08 03:24:39;;;;;;;6.13;4.97;;;;;;;;;;4971192;28;20422;-96
2021/08/08 03:27:06;;;;;;;7.30;5.10;;;;;;;;;;4971188;28;20869;-96
2021/08/08 03:29:33;;;;;;;8.35;5.25;;;;;;;;;;4986894;28;20424;-96
2021/08/08 03:32:00;;;;;;;9.50;4.72;;;;;;;;;;4983150;28;20446;-96
2021/08/08 03:34:28;;;;;;;5.93;4.75;;;;;;;;;;4971084;28;20418;-96
2021/08/08 03:36:55;;;;;;;10.75;4.70;;;;;;;;;;4970893;28;20422;-95
2021/08/08 03:39:25;;;;;;;8.73;5.10;;;;;;;;;;4970898;28;20882;-96
2021/08/08 03:41:53;;;;;;;8.70;4.93;;;;;;;;;;4971111;28;20451;-95
2021/08/08 03:44:20;;;;;;;7.93;5.63;;;;;;;;;;4971207;28;20418;-95
2021/08/08 03:46:48;;;;;;;8.95;5.35;;;;;;;;;;4976559;28;20420;-96
2021/08/08 03:49:15;;;;;;;7.88;4.82;;;;;;;;;;4985168;28;20920;-96
2021/08/08 03:51:42;;;;;;;7.40;4.93;;;;;;;;;;4970945;28;20488;-96
2021/08/08 03:54:09;;;;;;;7.18;5.05;;;;;;;;;;4974679;28;20421;-95
2021/08/08 03:56:36;;;;;;;10.88;5.55;;;;;;;;;;4971003;28;20426;-96
2021/08/08 03:59:04;;;;;;;7.05;5.20;;;;;;;;;;4982844;28;20417;-95
2021/08/08 04:01:31;;;;;;;8.90;6.28;;;;;;;;;;4974292;28;20421;-96
2021/08/08 04:03:58;;;;;;;8.20;5.85;;;;;;;;;;4970223;28;20433;-96
2021/08/08 04:06:25;;;;;;;6.78;5.28;;;;;;;;;;4955431;28;20428;-96
2021/08/08 04:08:52;;;;;;;7.05;5.00;;;;;;;;;;4973786;28;20442;-96
2021/08/08 04:11:19;;;;;;;7.40;5.10;;;;;;;;;;4979824;28;20413;-96
2021/08/08 04:13:46;;;;;;;7.57;5.00;;;;;;;;;;4993757;28;20427;-96
2021/08/08 04:16:14;;;;;;;8.40;5.55;;;;;;;;;;4993296;28;20421;-96
2021/08/08 04:18:41;;;;;;;10.43;5.53;;;;;;;;;;4993748;28;20419;-96
2021/08/08 04:21:08;;;;;;;9.35;5.40;;;;;;;;;;4993664;28;20416;-96
2021/08/08 04:23:35;;;;;;;7.85;5.47;;;;;;;;;;4993281;28;20459;-96
2021/08/08 04:26:02;;;;;;;8.80;5.32;;;;;;;;;;4985627;28;20408;-96
2021/08/08 04:28:29;;;;;;;8.18;5.30;;;;;;;;;;4993438;28;20422;-96
2021/08/08 04:30:57;;;;;;;9.48;5.97;;;;;;;;;;4993684;28;20503;-96
2021/08/08 04:33:25;;;;;;;9.77;5.43;;;;;;;;;;4982477;28;20424;-96
2021/08/08 04:35:52;;;;;;;9.32;6.00;;;;;;;;;;4973615;28;20429;-96
2021/08/08 04:38:19;;;;;;;8.23;5.93;;;;;;;;;;4979283;28;20916;-96
2021/08/08 04:40:46;;;;;;;10.02;6.05;;;;;;;;;;4993496;28;20412;-96
2021/08/08 04:43:13;;;;;;;10.80;6.68;;;;;;;;;;4993755;28;20424;-96
2021/08/08 04:45:40;;;;;;;10.63;6.55;;;;;;;;;;4983185;28;20425;-96
2021/08/08 04:48:06;;;;;;;10.52;6.10;;;;;;;;;;4954093;28;20420;-96
2021/08/08 04:50:35;;;;;;;10.32;6.47;;;;;;;;;;4954630;29;20420;-96
2021/08/08 04:53:02;;;;;;;10.02;5.95;;;;;;;;;;4954297;29;20919;-96
2021/08/08 04:55:29;;;;;;;9.13;5.90;;;;;;;;;;4953957;28;20428;-96
2021/08/08 04:57:56;;;;;;;8.60;5.60;;;;;;;;;;4953899;29;20470;-96
2021/08/08 05:00:23;;;;;;;7.93;5.80;;;;;;;;;;4954404;29;20420;-96
2021/08/08 05:02:50;;;;;;;11.27;5.60;;;;;;;;;;4956163;28;20431;-96
2021/08/08 05:05:18;;;;;;;10.25;5.43;;;;;;;;;;4963686;28;20423;-96
2021/08/08 05:07:46;;;;;;;7.55;5.57;;;;;;;;;;4953901;29;20435;-95
2021/08/08 05:10:16;;;;;;;8.93;5.73;;;;;;;;;;4954762;28;20427;-96
2021/08/08 05:12:43;;;;;;;9.20;5.00;;;;;;;;;;4961154;28;20420;-96
2021/08/08 05:15:11;;;;;;;6.93;4.47;;;;;;;;;;4965050;28;21074;-95
2021/08/08 05:17:38;;;;;;;9.25;4.35;;;;;;;;;;4957292;28;20419;-96
2021/08/08 05:20:06;;;;;;;9.80;4.50;;;;;;;;;;4972806;28;20807;-95
2021/08/08 05:22:33;;;;;;;7.30;4.07;;;;;;;;;;4949745;29;20427;-96
2021/08/08 05:25:02;;;;;;;6.88;4.10;;;;;;;;;;4953705;29;20422;-96
2021/08/08 05:27:29;;;;;;;6.15;3.80;;;;;;;;;;4957490;28;20416;-95
2021/08/08 05:29:55;;;;;;;8.88;3.72;;;;;;;;;;4953652;29;20412;-95
2021/08/08 05:32:22;;;;;;;3.95;3.05;;;;;;;;;;4965597;28;20427;-95
2021/08/08 05:34:49;;;;;;;7.53;3.10;;;;;;;;;;4967100;28;20499;-95
2021/08/08 05:37:16;;;;;;;7.35;3.28;;;;;;;;;;4972786;28;20406;-96
2021/08/08 05:39:43;;;;;;;7.93;3.53;;;;;;;;;;4972649;28;20414;-95
2021/08/08 05:42:12;;;;;;;7.90;3.35;;;;;;;;;;4968398;28;20422;-96
2021/08/08 05:44:39;;;;;;;6.53;3.30;;;;;;;;;;4968457;28;20416;-95
2021/08/08 05:47:07;;;;;;;5.43;3.00;;;;;;;;;;4956576;28;20443;-96
2021/08/08 05:49:34;;;;;;;5.88;3.17;;;;;;;;;;4934358;29;20428;-96
2021/08/08 05:52:01;;;;;;;5.82;3.10;;;;;;;;;;4933973;29;20421;-95
2021/08/08 05:54:29;;;;;;;4.63;3.23;;;;;;;;;;4933801;29;20812;-96
2021/08/08 05:56:56;;;;;;;6.07;3.30;;;;;;;;;;4934033;29;20414;-96
2021/08/08 05:59:25;;;;;;;4.60;2.97;;;;;;;;;;4933941;29;20437;-96
2021/08/08 06:01:52;;;;;;;6.10;3.30;;;;;;;;;;4933949;29;20491;-96
2021/08/08 06:04:19;;;;;;;6.10;3.40;;;;;;;;;;4934913;29;20834;-95
2021/08/08 06:06:46;;;;;;;7.07;3.67;;;;;;;;;;4953002;29;20419;-96
2021/08/08 06:09:13;;;;;;;6.32;3.10;;;;;;;;;;4952638;28;20419;-96
2021/08/08 06:11:40;;;;;;;5.38;3.00;;;;;;;;;;4953198;28;20420;-96
2021/08/08 06:14:07;;;;;;;7.72;3.58;;;;;;;;;;4952674;28;20416;-96
2021/08/08 06:16:35;;;;;;;5.60;3.33;;;;;;;;;;4948949;28;20423;-96
2021/08/08 06:19:02;;;;;;;7.22;3.20;;;;;;;;;;4952481;29;20416;-96
2021/08/08 06:21:29;;;;;;;6.43;2.90;;;;;;;;;;4952906;29;20412;-96
2021/08/08 06:23:56;;;;;;;9.10;3.67;;;;;;;;;;4960418;28;20427;-96
2021/08/08 06:26:23;;;;;;;6.03;3.50;;;;;;;;;;4952428;29;20419;-95
2021/08/08 06:28:50;;;;;;;6.57;3.30;;;;;;;;;;4970545;28;20418;-96
2021/08/08 06:31:17;;;;;;;9.05;3.42;;;;;;;;;;4957362;28;20420;-96
2021/08/08 06:33:46;;;;;;;6.60;3.43;;;;;;;;;;4952664;29;20426;-96
2021/08/08 06:36:13;;;;;;;9.13;3.45;;;;;;;;;;4960601;28;20430;-96
2021/08/08 06:38:40;;;;;;;6.45;3.05;;;;;;;;;;4959460;28;20420;-95
2021/08/08 06:41:07;;;;;;;6.25;3.10;;;;;;;;;;4952141;29;20427;-96
2021/08/08 06:43:33;;;;;;;9.52;3.35;;;;;;;;;;4952267;28;20423;-96
2021/08/08 06:46:00;;;;;;;6.60;3.33;;;;;;;;;;4952458;28;21053;-96
2021/08/08 06:48:27;;;;;;;5.50;2.97;;;;;;;;;;4952217;29;20404;-96
2021/08/08 06:50:56;;;;;;;6.88;3.05;;;;;;;;;;4952152;28;20426;-96
2021/08/08 06:53:23;;;;;;;8.75;3.35;;;;;;;;;;4956172;28;20452;-96
2021/08/08 06:55:50;;;;;;;8.45;3.15;;;;;;;;;;4952522;28;20431;-96
2021/08/08 06:58:16;;;;;;;7.18;3.35;;;;;;;;;;4952465;28;20778;-96
2021/08/08 07:00:43;;;;;;;7.28;3.17;;;;;;;;;;4952175;28;20761;-96
2021/08/08 07:03:11;;;;;;;6.03;2.80;;;;;;;;;;4951838;29;20415;-96
2021/08/08 07:05:38;;;;;;;6.75;3.05;;;;;;;;;;4952105;28;20408;-96
2021/08/08 07:08:07;;;;;;;6.75;3.25;;;;;;;;;;4940194;28;20421;-96
2021/08/08 07:10:34;;;;;;;5.03;3.15;;;;;;;;;;4932393;29;20481;-96
2021/08/08 07:13:04;;;;;;;5.88;3.30;;;;;;;;;;4967648;28;20431;-96
2021/08/08 07:15:31;;;;;;;5.45;3.20;;;;;;;;;;4951710;28;20423;-96
2021/08/08 07:17:58;;;;;;;7.05;3.17;;;;;;;;;;4951140;28;20895;-96
2021/08/08 07:20:25;;;;;;;7.95;3.70;;;;;;;;;;4951455;29;20908;-96
2021/08/08 07:22:52;;;;;;;6.65;3.10;;;;;;;;;;4951854;29;20444;-96
2021/08/08 07:25:20;;;;;;;6.78;3.42;;;;;;;;;;4951816;28;20418;-96
2021/08/08 07:27:47;;;;;;;6.82;3.83;;;;;;;;;;4951401;28;20413;-96
2021/08/08 07:30:14;;;;;;;8.45;3.25;;;;;;;;;;4956453;28;20422;-96
2021/08/08 07:32:41;;;;;;;6.45;3.13;;;;;;;;;;4961918;28;20416;-95
2021/08/08 07:35:09;;;;;;;9.15;3.35;;;;;;;;;;4951268;28;20416;-96
2021/08/08 07:37:35;;;;;;;8.17;3.30;;;;;;;;;;4962947;28;20435;-96
2021/08/08 07:40:02;;;;;;;6.90;3.55;;;;;;;;;;4962895;28;20426;-96
2021/08/08 07:42:31;;;;;;;7.40;3.30;;;;;;;;;;4956015;28;20896;-96
2021/08/08 07:44:58;;;;;;;6.75;3.58;;;;;;;;;;4951552;28;20416;-96
2021/08/08 07:47:25;;;;;;;7.68;3.88;;;;;;;;;;4951048;28;20423;-96
2021/08/08 07:49:52;;;;;;;10.27;3.90;;;;;;;;;;4963007;28;20481;-96
2021/08/08 07:52:18;;;;;;;8.00;3.37;;;;;;;;;;4951399;29;20497;-96
2021/08/08 07:54:47;;;;;;;8.63;3.63;;;;;;;;;;4951537;29;20435;-96
2021/08/08 07:57:14;;;;;;;6.30;3.60;;;;;;;;;;4950831;29;20427;-96
2021/08/08 07:59:42;;;;;;;10.45;3.75;;;;;;;;;;4952052;28;20419;-96
2021/08/08 08:02:10;;;;;;;8.65;4.00;;;;;;;;;;4953755;28;20609;-96
2021/08/08 08:04:36;;;;;;;6.27;3.80;;;;;;;;;;4952362;28;20418;-96
2021/08/08 08:07:04;;;;;;;8.73;3.67;;;;;;;;;;4947812;28;20415;-96
2021/08/08 08:09:31;;;;;;;8.10;4.20;;;;;;;;;;4951078;28;20425;-96
2021/08/08 08:11:58;;;;;;;11.32;4.22;;;;;;;;;;4950846;28;20429;-96
2021/08/08 08:14:25;;;;;;;8.63;4.03;;;;;;;;;;4958084;28;20416;-96
2021/08/08 08:16:53;;;;;;;8.63;3.93;;;;;;;;;;4949693;28;20424;-96
2021/08/08 08:19:20;;;;;;;8.90;4.15;;;;;;;;;;4955109;28;20416;-96
2021/08/08 08:21:47;;;;;;;8.40;4.30;;;;;;;;;;4952365;28;20420;-96
2021/08/08 08:24:15;;;;;;;8.38;4.00;;;;;;;;;;4947555;28;20472;-96
2021/08/08 08:26:42;;;;;;;10.10;4.40;;;;;;;;;;4955113;28;20917;-96
2021/08/08 08:29:09;;;;;;;8.57;4.30;;;;;;;;;;4947564;29;20432;-96
2021/08/08 08:31:36;;;;;;;9.20;4.40;;;;;;;;;;4950202;29;20424;-96
2021/08/08 08:34:15;;;;;;;9.52;4.15;;;;;;;;;;4951375;29;20404;-96
2021/08/08 08:36:42;;;;;;;9.73;4.68;;;;;;;;;;4947226;28;20459;-96
2021/08/08 08:39:09;;;;;;;8.82;4.40;;;;;;;;;;4947708;28;20420;-96
2021/08/08 08:41:37;;;;;;;8.68;4.47;;;;;;;;;;4952261;28;20424;-96
2021/08/08 08:44:04;;;;;;;6.25;3.90;;;;;;;;;;4949431;28;20422;-96
2021/08/08 08:46:34;;;;;;;10.35;4.25;;;;;;;;;;4951945;28;20416;-96
2021/08/08 08:49:02;;;;;;;7.88;4.28;;;;;;;;;;4954326;28;20487;-96
2021/08/08 08:51:36;;;;;;;8.63;4.10;;;;;;;;;;4951703;28;20771;-96
2021/08/08 08:54:04;;;;;;;8.85;4.55;;;;;;;;;;4949502;28;20424;-96
2021/08/08 08:56:32;;;;;;;10.57;4.73;;;;;;;;;;4956417;28;20840;-96
2021/08/08 08:58:59;;;;;;;8.90;4.43;;;;;;;;;;4955749;28;20422;-96
2021/08/08 09:01:26;;;;;;;8.73;4.43;;;;;;;;;;4956562;28;20417;-96
2021/08/08 09:03:53;;;;;;;8.80;4.43;;;;;;;;;;4956449;28;20515;-96
2021/08/08 09:06:20;;;;;;;9.02;4.28;;;;;;;;;;4957135;28;20412;-96
2021/08/08 09:08:49;;;;;;;7.40;4.40;;;;;;;;;;4956862;28;20759;-96
2021/08/08 09:11:16;;;;;;;8.80;4.35;;;;;;;;;;4956409;28;20427;-96
2021/08/08 09:13:54;;;;;;;12.55;4.40;;;;;;;;;;4954712;28;20423;-96
2021/08/08 09:16:23;;;;;;;10.23;4.10;;;;;;;;;;4953809;28;20431;-96
2021/08/08 09:18:51;;;;;;;8.50;4.22;;;;;;;;;;4951647;29;20420;-96
2021/08/08 09:21:19;;;;;;;8.10;4.47;;;;;;;;;;4952833;28;20416;-96
2021/08/08 09:23:54;;;;;;;9.52;4.07;;;;;;;;;;4955801;28;20416;-96
2021/08/08 09:26:29;;;;;;;8.55;3.85;;;;;;;;;;4954837;28;20408;-96
2021/08/08 09:29:05;;;;;;;7.82;3.80;;;;;;;;;;4952178;28;20424;-96
2021/08/08 09:31:39;;;;;;;6.35;3.72;;;;;;;;;;4951372;29;20833;-96
2021/08/08 09:34:06;;;;;;;8.40;4.35;;;;;;;;;;4951612;28;20476;-96
2021/08/08 09:36:40;;;;;;;8.38;3.70;;;;;;;;;;4951297;28;20416;-96
2021/08/08 09:39:09;;;;;;;7.83;4.00;;;;;;;;;;4950743;29;20562;-96
2021/08/08 09:41:37;;;;;;;9.23;4.50;;;;;;;;;;4955689;28;20416;-94
2021/08/08 09:44:09;;;;;;;8.80;3.90;;;;;;;;;;4933911;28;20460;-96
2021/08/08 09:46:37;;;;;;;8.88;4.30;;;;;;;;;;4961502;28;20506;-96
2021/08/08 09:49:10;;;;;;;7.93;4.20;;;;;;;;;;4966198;28;20410;-96
2021/08/08 09:51:48;;;;;;;6.00;3.85;;;;;;;;;;4967390;28;21006;-96
2021/08/08 09:54:17;;;;;;;9.60;4.25;;;;;;;;;;4966312;28;20445;-96
2021/08/08 09:56:44;;;;;;;7.78;3.20;;;;;;;;;;4965297;28;20438;-96
2021/08/08 09:59:11;;;;;;;6.00;3.35;;;;;;;;;;4959175;28;20418;-96
2021/08/08 10:01:40;;;;;;;4.73;3.17;;;;;;;;;;4966195;28;20477;-96
2021/08/08 10:04:07;;;;;;;8.05;3.78;;;;;;;;;;4959591;28;20437;-96
2021/08/08 10:06:35;;;;;;;7.15;3.67;;;;;;;;;;4956964;28;20426;-96
2021/08/08 10:09:02;;;;;;;7.90;3.83;;;;;;;;;;4963846;28;20463;-96
2021/08/08 10:11:33;;;;;;;8.65;3.70;;;;;;;;;;4964530;28;21004;-96
2021/08/08 10:14:03;;;;;;;6.43;3.57;;;;;;;;;;4961833;28;20439;-94
2021/08/08 10:16:32;;;;;;;7.43;3.55;;;;;;;;;;4963046;28;20905;-96
2021/08/08 10:19:02;;;;;;;8.20;3.60;;;;;;;;;;4964289;28;20429;-96
2021/08/08 10:21:31;;;;;;;6.88;3.50;;;;;;;;;;4952888;29;20781;-96
2021/08/08 10:24:02;;;;;;;6.68;3.78;;;;;;;;;;4964880;28;20420;-96
2021/08/08 10:26:31;;;;;;;7.23;3.57;;;;;;;;;;4953373;29;20803;-96
2021/08/08 10:28:59;;;;;;;8.35;3.65;;;;;;;;;;4958262;28;20437;-96
2021/08/08 10:31:29;;;;;;;7.88;3.75;;;;;;;;;;4953445;28;20420;-96
2021/08/08 10:33:57;;;;;;;10.05;3.60;;;;;;;;;;4966971;28;20406;-96
2021/08/08 10:36:25;;;;;;;6.35;3.35;;;;;;;;;;4959246;28;20904;-96
2021/08/08 10:38:54;;;;;;;7.30;3.30;;;;;;;;;;4952443;28;20427;-96
2021/08/08 10:41:22;;;;;;;6.50;3.30;;;;;;;;;;4966538;28;20450;-96
2021/08/08 10:43:51;;;;;;;5.53;3.37;;;;;;;;;;4964958;28;20416;-96
2021/08/08 10:46:18;;;;;;;7.60;3.30;;;;;;;;;;4967429;28;20419;-94
2021/08/08 10:48:46;;;;;;;9.80;3.72;;;;;;;;;;4978352;28;20424;-94
2021/08/08 10:51:21;;;;;;;7.35;3.72;;;;;;;;;;4976541;28;20415;-95
2021/08/08 10:53:59;;;;;;;5.78;3.28;;;;;;;;;;4975278;28;20477;-95
2021/08/08 10:56:38;;;;;;;7.50;3.33;;;;;;;;;;4974488;28;20938;-96
2021/08/08 10:59:18;;;;;;;7.28;3.40;;;;;;;;;;4969066;28;20461;-96
2021/08/08 11:01:46;;;;;;;6.55;3.33;;;;;;;;;;4969006;28;20426;-95
2021/08/08 11:04:13;;;;;;;8.68;3.42;;;;;;;;;;4973276;28;20575;-96
2021/08/08 11:06:43;;;;;;;6.43;3.50;;;;;;;;;;4969090;28;20418;-95
2021/08/08 11:09:10;;;;;;;9.10;3.60;;;;;;;;;;4975495;28;20418;-96
2021/08/08 11:11:39;;;;;;;7.38;3.75;;;;;;;;;;4973848;28;20422;-96
2021/08/08 11:14:12;;;;;;;6.47;3.63;;;;;;;;;;4973575;28;20413;-95
2021/08/08 11:16:41;;;;;;;6.63;3.20;;;;;;;;;;4968187;28;20845;-95
2021/08/08 11:19:09;;;;;;;5.95;3.40;;;;;;;;;;4971711;28;20516;-95
2021/08/08 11:21:36;;;;;;;7.07;3.50;;;;;;;;;;4975588;28;20436;-96
2021/08/08 11:24:06;;;;;;;8.43;3.28;;;;;;;;;;4967142;28;20608;-96
2021/08/08 11:26:33;;;;;;;8.07;3.50;;;;;;;;;;4973696;28;20453;-96
2021/08/08 11:29:03;;;;;;;7.88;3.28;;;;;;;;;;4973237;28;20425;-94
2021/08/08 11:31:32;;;;;;;6.67;3.37;;;;;;;;;;4969389;28;20409;-95
2021/08/08 11:34:02;;;;;;;5.40;3.20;;;;;;;;;;4975975;28;20414;-96
2021/08/08 11:36:34;;;;;;;6.05;3.22;;;;;;;;;;4968211;28;20422;-96
2021/08/08 11:39:03;;;;;;;6.70;3.47;;;;;;;;;;4974832;28;20416;-96
2021/08/08 11:41:30;;;;;;;6.13;3.30;;;;;;;;;;4972658;28;20747;-96
2021/08/08 11:44:09;;;;;;;6.03;3.40;;;;;;;;;;4975247;28;20752;-95
2021/08/08 11:46:37;;;;;;;7.72;3.67;;;;;;;;;;4963719;28;20428;-96
2021/08/08 11:49:20;;;;;;;6.13;3.20;;;;;;;;;;4958880;28;20806;-95
2021/08/08 11:51:57;;;;;;;6.95;3.25;;;;;;;;;;4956407;28;20426;-96
2021/08/08 11:54:28;;;;;;;5.32;3.22;;;;;;;;;;4958472;28;20480;-96
2021/08/08 11:56:55;;;;;;;7.75;3.35;;;;;;;;;;4957141;28;20418;-96
2021/08/08 11:59:27;;;;;;;7.15;3.15;;;;;;;;;;4960161;28;20423;-96
2021/08/08 12:01:58;;;;;;;6.32;3.47;;;;;;;;;;4959932;28;20419;-96
2021/08/08 12:04:27;;;;;;;7.25;3.30;;;;;;;;;;4955873;28;20416;-96
2021/08/08 12:06:54;;;;;;;7.35;3.38;;;;;;;;;;4958801;28;20426;-96
2021/08/08 12:09:22;;;;;;;6.47;3.55;;;;;;;;;;4961392;28;20965;-96
2021/08/08 12:11:51;;;;;;;5.45;3.42;;;;;;;;;;4959408;28;20426;-96
2021/08/08 12:14:29;;;;;;;7.80;3.58;;;;;;;;;;4957912;28;20422;-96
2021/08/08 12:17:01;;;;;;;6.50;3.50;;;;;;;;;;4957736;28;20855;-96
2021/08/08 12:19:30;;;;;;;6.68;3.47;;;;;;;;;;4958994;28;20428;-96
2021/08/08 12:22:02;;;;;;;5.82;3.47;;;;;;;;;;4957230;28;20416;-96
2021/08/08 12:24:34;;;;;;;6.70;3.23;;;;;;;;;;4959539;28;20562;-96
2021/08/08 12:27:01;;;;;;;5.60;3.40;;;;;;;;;;4956958;28;21054;-96
2021/08/08 12:29:32;;;;;;;6.33;3.60;;;;;;;;;;4960783;28;20424;-96
2021/08/08 12:32:12;;;;;;;6.32;3.50;;;;;;;;;;4962960;28;20425;-96
2021/08/08 12:34:41;;;;;;;7.07;3.13;;;;;;;;;;4963436;28;20431;-96
2021/08/08 12:37:09;;;;;;;6.43;3.60;;;;;;;;;;4962879;28;20792;-96
2021/08/08 12:39:37;;;;;;;5.65;3.28;;;;;;;;;;4962486;28;20444;-96
2021/08/08 12:42:04;;;;;;;6.93;3.67;;;;;;;;;;4960758;28;20958;-96
2021/08/08 12:44:33;;;;;;;5.60;3.42;;;;;;;;;;4962295;28;20497;-96
2021/08/08 12:47:02;;;;;;;5.43;3.70;;;;;;;;;;4962245;28;20928;-96
2021/08/08 12:49:35;;;;;;;7.13;3.22;;;;;;;;;;4960111;28;20427;-96
2021/08/08 12:52:04;;;;;;;7.03;2.83;;;;;;;;;;4961864;28;20761;-96
2021/08/08 12:54:31;;;;;;;5.28;2.72;;;;;;;;;;4959391;28;20499;-96
2021/08/08 12:56:58;;;;;;;2.80;2.10;;;;;;;;;;4961348;28;20419;-96
2021/08/08 12:59:25;;;;;;;6.35;2.65;;;;;;;;;;4959646;28;20515;-96
2021/08/08 13:01:52;;;;;;;3.05;2.63;;;;;;;;;;4961316;28;20864;-96
2021/08/08 13:04:19;;;;;;;4.35;2.78;;;;;;;;;;4962346;28;20414;-96
2021/08/08 13:06:46;;;;;;;4.75;2.88;;;;;;;;;;4957318;28;20424;-96
2021/08/08 13:09:19;;;;;;;4.57;2.60;;;;;;;;;;4957379;28;20418;-96
2021/08/08 13:11:46;;;;;;;3.75;2.72;;;;;;;;;;4959434;28;20449;-96
2021/08/08 13:14:13;;;;;;;3.92;2.47;;;;;;;;;;4961633;28;20441;-96
2021/08/08 13:16:40;;;;;;;4.18;2.58;;;;;;;;;;4955023;28;20418;-95
2021/08/08 13:19:08;;;;;;;3.40;2.40;;;;;;;;;;4960016;28;20428;-96
2021/08/08 13:21:36;;;;;;;4.88;2.60;;;;;;;;;;4957620;28;20432;-96
2021/08/08 13:24:05;;;;;;;3.92;2.60;;;;;;;;;;4956784;28;20515;-96
2021/08/08 13:26:35;;;;;;;5.30;2.75;;;;;;;;;;4954071;28;20489;-96
2021/08/08 13:29:03;;;;;;;4.47;2.95;;;;;;;;;;4956651;28;20426;-95
2021/08/08 13:31:31;;;;;;;4.80;2.77;;;;;;;;;;4954006;28;20972;-96
2021/08/08 13:34:00;;;;;;;3.90;3.03;;;;;;;;;;4951294;28;20422;-96
2021/08/08 13:36:27;;;;;;;4.37;2.80;;;;;;;;;;4951925;28;20415;-96
2021/08/08 13:38:54;;;;;;;4.78;2.80;;;;;;;;;;4956816;28;20439;-96
2021/08/08 13:41:21;;;;;;;6.07;2.67;;;;;;;;;;4958435;28;20845;-96
2021/08/08 13:43:50;;;;;;;5.95;2.90;;;;;;;;;;4955737;28;20910;-96
2021/08/08 13:46:16;;;;;;;3.35;2.78;;;;;;;;;;4956189;28;20435;-96
2021/08/08 13:48:43;;;;;;;4.67;3.10;;;;;;;;;;4957225;28;20423;-96
2021/08/08 13:51:10;;;;;;;4.60;3.05;;;;;;;;;;4956912;28;20423;-96
2021/08/08 13:53:37;;;;;;;4.90;3.10;;;;;;;;;;4958743;28;20423;-96
2021/08/08 13:56:04;;;;;;;3.40;2.72;;;;;;;;;;4935075;28;20895;-96
2021/08/08 13:58:31;;;;;;;5.15;2.97;;;;;;;;;;4961776;28;20422;-96
2021/08/08 14:01:00;;;;;;;5.50;3.00;;;;;;;;;;4953316;28;20416;-96
2021/08/08 14:03:27;;;;;;;6.30;3.20;;;;;;;;;;4961375;28;20402;-96
2021/08/08 14:05:54;;;;;;;6.97;3.03;;;;;;;;;;4965684;28;20416;-96
2021/08/08 14:08:21;;;;;;;5.68;2.72;;;;;;;;;;4952920;29;20444;-96
2021/08/08 14:10:49;;;;;;;4.88;2.58;;;;;;;;;;4962552;28;20413;-96
2021/08/08 14:13:16;;;;;;;3.97;2.70;;;;;;;;;;4952126;29;20499;-95
2021/08/08 14:15:42;;;;;;;5.25;2.90;;;;;;;;;;4956408;28;20420;-94
2021/08/08 14:18:11;;;;;;;4.33;3.00;;;;;;;;;;4956260;28;20428;-91
2021/08/08 14:20:37;;;;;;;5.73;2.83;;;;;;;;;;4958304;28;20404;-96
2021/08/08 14:23:05;;;;;;;5.65;2.88;;;;;;;;;;4950464;28;20417;-96
2021/08/08 14:25:32;;;;;;;3.88;2.78;;;;;;;;;;4948932;28;20438;-96
2021/08/08 14:27:59;;;;;;;4.93;2.83;;;;;;;;;;4951357;28;20803;-96
2021/08/08 14:30:26;;;;;;;4.85;3.10;;;;;;;;;;4951816;28;20423;-95
2021/08/08 14:32:53;;;;;;;4.97;2.90;;;;;;;;;;4948562;28;20430;-94
2021/08/08 14:35:22;;;;;;;3.70;2.70;;;;;;;;;;4948569;28;20423;-95
2021/08/08 14:37:49;;;;;;;5.57;3.10;;;;;;;;;;4949253;28;20536;-96
2021/08/08 14:40:17;;;;;;;4.72;2.60;;;;;;;;;;4951277;28;20424;-96
2021/08/08 14:42:44;;;;;;;5.22;3.00;;;;;;;;;;4954585;28;20416;-96
2021/08/08 14:45:12;;;;;;;5.13;2.85;;;;;;;;;;4958977;28;20418;-96
2021/08/08 14:47:39;;;;;;;5.00;2.95;;;;;;;;;;4954668;28;20423;-95
2021/08/08 14:50:08;;;;;;;4.13;2.67;;;;;;;;;;4957586;28;20893;-96